createdAt,value
2018-12-05T00:02:20.139Z,13.03
2018-12-05T00:07:05.016Z,10.90
2018-12-05T00:11:49.761Z,11.30
2018-12-05T00:16:34.531Z,13.43
2018-12-05T00:21:19.736Z,13.70
2018-12-05T00:26:04.967Z,14.93
2018-12-05T00:30:49.821Z,10.77
2018-12-05T00:35:34.634Z,10.77
2018-12-05T00:40:19.467Z,10.40
2018-12-05T00:45:04.436Z,11.83
2018-12-05T00:49:49.343Z,12.83
2018-12-05T00:54:34.161Z,11.20
2018-12-05T00:59:18.943Z,10.97
2018-12-05T01:04:04.075Z,9.20
2018-12-05T01:08:48.915Z,8.97
2018-12-05T01:13:33.685Z,10.00
2018-12-05T01:18:18.455Z,12.50
2018-12-05T01:23:03.288Z,10.03
2018-12-05T01:27:48.011Z,9.97
2018-12-05T01:32:32.892Z,8.57
2018-12-05T01:37:17.567Z,9.03
2018-12-05T01:42:02.347Z,8.33
2018-12-05T01:46:47.095Z,9.33
2018-12-05T01:51:31.910Z,10.50
2018-12-05T01:56:16.663Z,7.73
2018-12-05T02:01:01.598Z,7.90
2018-12-05T02:05:46.385Z,8.13
2018-12-05T02:10:31.136Z,10.70
2018-12-05T02:15:15.927Z,9.20
2018-12-05T02:20:00.751Z,7.80
2018-12-05T02:24:45.630Z,9.80
2018-12-05T02:29:35.566Z,10.60
2018-12-05T02:34:20.395Z,10.20
2018-12-05T02:39:08.278Z,9.80
2018-12-05T02:43:53.081Z,8.03
2018-12-05T02:48:37.926Z,7.20
2018-12-05T02:53:22.629Z,5.60
2018-12-05T02:58:07.485Z,4.70
2018-12-05T03:02:52.224Z,1.00
2018-12-05T03:07:36.964Z,0.40
2018-12-05T03:12:21.710Z,0.40
2018-12-05T03:17:06.467Z,0.40
2018-12-05T03:21:51.145Z,6.63
2018-12-05T03:26:35.953Z,9.97
2018-12-05T03:31:20.667Z,7.73
2018-12-05T03:36:05.556Z,5.30
2018-12-05T03:40:50.556Z,8.50
2018-12-05T03:45:35.291Z,8.77
2018-12-05T03:50:20.130Z,6.20
2018-12-05T03:55:05.332Z,6.93
2018-12-05T03:59:50.111Z,7.13
2018-12-05T04:04:34.782Z,7.53
2018-12-05T04:09:19.601Z,2.60
2018-12-05T04:14:04.800Z,2.60
2018-12-05T04:18:49.586Z,2.40
2018-12-05T04:23:34.326Z,0.80
2018-12-05T04:28:19.147Z,0.63
2018-12-05T04:33:03.907Z,0.40
2018-12-05T04:37:48.601Z,0.60
2018-12-05T04:42:33.361Z,8.67
2018-12-05T04:47:18.122Z,2.50
2018-12-05T04:52:02.883Z,2.40
2018-12-05T04:56:47.693Z,2.70
2018-12-05T05:01:32.455Z,3.30
2018-12-05T05:06:17.228Z,9.33
2018-12-05T05:11:01.999Z,11.83
2018-12-05T05:15:46.851Z,13.57
2018-12-05T05:20:31.673Z,14.00
2018-12-05T05:25:16.499Z,13.27
2018-12-05T05:30:01.741Z,13.43
2018-12-05T05:34:46.639Z,12.87
2018-12-05T05:39:31.322Z,13.03
2018-12-05T05:44:16.070Z,14.37
2018-12-05T05:49:00.804Z,11.90
2018-12-05T05:53:45.724Z,13.63
2018-12-05T05:58:30.506Z,11.87
2018-12-05T06:03:15.330Z,7.67
2018-12-05T06:08:00.114Z,12.73
2018-12-05T06:12:44.859Z,1.90
2018-12-05T06:17:29.631Z,1.57
2018-12-05T06:22:14.377Z,1.47
2018-12-05T06:26:59.199Z,2.20
2018-12-05T06:31:43.984Z,2.30
2018-12-05T06:36:28.871Z,2.33
2018-12-05T06:41:13.663Z,2.67
2018-12-05T06:45:58.465Z,2.30
2018-12-05T06:50:43.197Z,1.30
2018-12-05T06:55:28.002Z,0.50
2018-12-05T07:00:12.727Z,0.60
2018-12-05T07:04:57.515Z,0.60
2018-12-05T07:09:42.351Z,3.17
2018-12-05T07:14:27.213Z,5.60
2018-12-05T07:19:12.043Z,7.43
2018-12-05T07:23:56.869Z,8.17
2018-12-05T07:28:41.563Z,11.67
2018-12-05T07:33:26.338Z,11.10
2018-12-05T07:38:11.089Z,11.30
2018-12-05T07:42:55.887Z,10.17
2018-12-05T07:47:40.566Z,9.07
2018-12-05T07:52:25.457Z,10.03
2018-12-05T07:57:10.208Z,11.43
2018-12-05T08:01:55.026Z,11.53
2018-12-05T08:06:39.782Z,11.17
2018-12-05T08:11:24.629Z,11.13
2018-12-05T08:16:09.507Z,7.77
2018-12-05T08:20:54.268Z,6.43
2018-12-05T08:25:40.770Z,2.93
2018-12-05T08:30:25.906Z,6.40
2018-12-05T08:35:10.738Z,2.00
2018-12-05T08:39:55.622Z,1.60
2018-12-05T08:44:40.378Z,0.70
2018-12-05T08:49:25.126Z,0.53
2018-12-05T08:54:09.983Z,0.80
2018-12-05T08:58:54.752Z,0.67
2018-12-05T09:03:39.582Z,0.50
2018-12-05T09:08:24.407Z,0.60
2018-12-05T09:13:09.174Z,0.60
2018-12-05T09:17:54.083Z,0.60
2018-12-05T09:22:41.517Z,0.50
2018-12-05T09:27:25.710Z,0.60
2018-12-05T09:32:10.500Z,0.90
2018-12-05T09:36:55.259Z,1.00
2018-12-05T09:41:39.948Z,0.93
2018-12-05T09:46:24.915Z,0.90
2018-12-05T09:51:09.907Z,1.73
2018-12-05T09:55:54.822Z,1.50
2018-12-05T10:00:39.840Z,1.40
2018-12-05T10:05:24.607Z,1.50
2018-12-05T10:10:09.826Z,1.43
2018-12-05T10:14:54.667Z,1.20
2018-12-05T10:19:39.506Z,1.13
2018-12-05T10:24:24.572Z,1.20
2018-12-05T10:29:09.454Z,1.30
2018-12-05T10:33:54.336Z,1.80
2018-12-05T10:38:39.151Z,1.77
2018-12-05T10:43:24.015Z,1.30
2018-12-05T10:48:08.972Z,0.97
2018-12-05T10:52:53.839Z,2.97
2018-12-05T10:57:38.572Z,3.40
2018-12-05T11:02:28.314Z,2.40
2018-12-05T11:07:18.335Z,1.97
2018-12-05T11:12:08.329Z,1.90
2018-12-05T11:16:59.090Z,1.83
2018-12-05T11:21:49.816Z,2.60
2018-12-05T11:26:36.974Z,2.97
2018-12-05T11:31:21.803Z,2.30
2018-12-05T11:36:06.660Z,1.70
2018-12-05T11:40:51.416Z,2.47
2018-12-05T11:45:36.344Z,1.90
2018-12-05T11:50:21.654Z,2.47
2018-12-05T11:55:06.810Z,3.40
2018-12-05T11:59:51.693Z,3.80
2018-12-05T12:04:36.595Z,3.20
2018-12-05T12:09:21.462Z,3.27
2018-12-05T12:14:06.514Z,3.30
2018-12-05T12:18:51.453Z,3.27
2018-12-05T12:23:36.287Z,3.40
2018-12-05T12:28:21.210Z,2.50
2018-12-05T12:33:06.048Z,2.60
2018-12-05T12:37:50.866Z,1.80
2018-12-05T12:42:35.705Z,3.30
2018-12-05T12:47:20.636Z,3.70
2018-12-05T12:52:05.540Z,2.83
2018-12-05T12:56:50.361Z,2.57
2018-12-05T13:01:35.249Z,2.70
2018-12-05T13:06:20.063Z,2.57
2018-12-05T13:11:04.843Z,2.77
2018-12-05T13:15:49.686Z,2.13
2018-12-05T13:20:34.528Z,3.30
2018-12-05T13:25:19.428Z,2.37
2018-12-05T13:30:04.958Z,1.80
2018-12-05T13:34:49.747Z,1.67
2018-12-05T13:39:35.032Z,1.70
2018-12-05T13:44:19.831Z,2.13
2018-12-05T13:49:04.700Z,2.77
2018-12-05T13:53:49.598Z,3.20
2018-12-05T13:58:34.442Z,3.77
2018-12-05T14:03:19.279Z,4.80
2018-12-05T14:08:04.075Z,4.60
2018-12-05T14:12:49.661Z,4.97
2018-12-05T14:17:34.599Z,5.53
2018-12-05T14:22:19.380Z,5.90
2018-12-05T14:27:04.186Z,5.43
2018-12-05T14:31:48.992Z,6.60
2018-12-05T14:36:33.925Z,7.33
2018-12-05T14:41:18.747Z,7.17
2018-12-05T14:46:03.691Z,8.77
2018-12-05T14:50:48.477Z,11.10
2018-12-05T14:55:33.228Z,11.00
2018-12-05T15:00:18.032Z,11.67
2018-12-05T15:05:02.800Z,10.63
2018-12-05T15:09:47.655Z,11.20
2018-12-05T15:14:32.414Z,11.53
2018-12-05T15:19:17.326Z,12.27
2018-12-05T15:24:02.193Z,13.57
2018-12-05T15:28:47.070Z,15.87
2018-12-05T15:33:31.873Z,15.77
2018-12-05T15:38:16.657Z,13.77
2018-12-05T15:43:01.506Z,13.60
2018-12-05T15:47:46.383Z,12.60
2018-12-05T15:52:31.382Z,13.40
2018-12-05T15:57:16.376Z,14.43
2018-12-05T16:02:01.205Z,14.97
2018-12-05T16:06:46.179Z,14.73
2018-12-05T16:11:31.075Z,15.43
2018-12-05T16:16:16.140Z,16.77
2018-12-05T16:21:01.085Z,16.23
2018-12-05T16:25:46.064Z,19.07
2018-12-05T16:30:30.909Z,17.10
2018-12-05T16:35:15.805Z,16.53
2018-12-05T16:40:01.333Z,18.87
2018-12-05T16:44:46.492Z,18.80
2018-12-05T16:49:31.430Z,19.33
2018-12-05T16:54:16.600Z,23.10
2018-12-05T16:59:01.586Z,22.57
2018-12-05T17:03:46.527Z,25.13
2018-12-05T17:08:31.361Z,24.40
2018-12-05T17:13:16.381Z,22.07
2018-12-05T17:18:01.261Z,21.23
2018-12-05T17:22:46.232Z,19.00
2018-12-05T17:27:31.179Z,20.17
2018-12-05T17:32:16.122Z,21.47
2018-12-05T17:37:01.261Z,20.87
2018-12-05T17:41:46.228Z,20.57
2018-12-05T17:46:31.367Z,22.70
2018-12-05T17:51:16.453Z,21.73
2018-12-05T17:56:01.479Z,21.03
2018-12-05T18:00:46.473Z,19.10
2018-12-05T18:05:31.441Z,18.90
2018-12-05T18:10:16.416Z,18.77
2018-12-05T18:15:01.600Z,20.27
2018-12-05T18:19:46.562Z,19.70
2018-12-05T18:24:31.531Z,19.53
2018-12-05T18:29:16.608Z,18.53
2018-12-05T18:34:01.601Z,18.67
2018-12-05T18:38:46.465Z,18.40
2018-12-05T18:43:31.626Z,20.03
2018-12-05T18:48:16.490Z,19.47
2018-12-05T18:53:01.452Z,17.80
2018-12-05T18:57:46.404Z,18.83
2018-12-05T19:02:31.261Z,18.97
2018-12-05T19:07:16.179Z,20.17
2018-12-05T19:12:01.240Z,20.07
2018-12-05T19:16:46.163Z,20.77
2018-12-05T19:21:31.289Z,18.10
2018-12-05T19:26:16.318Z,20.47
2018-12-05T19:31:01.688Z,21.67
2018-12-05T19:35:46.608Z,21.00
2018-12-05T19:40:31.787Z,23.10
2018-12-05T19:45:17.248Z,21.13
2018-12-05T19:50:02.541Z,20.50
2018-12-05T19:54:47.463Z,19.93
2018-12-05T19:59:33.091Z,19.67
2018-12-05T20:04:18.060Z,23.10
2018-12-05T20:09:03.253Z,22.80
2018-12-05T20:13:48.195Z,22.07
2018-12-05T20:18:33.248Z,23.37
2018-12-05T20:23:18.634Z,23.60
2018-12-05T20:28:03.748Z,22.93
2018-12-05T20:32:49.814Z,23.03
2018-12-05T20:37:34.748Z,22.33
2018-12-05T20:42:19.908Z,23.30
2018-12-05T20:47:04.954Z,23.27
2018-12-05T20:51:50.307Z,21.57
2018-12-05T20:56:35.200Z,21.10
2018-12-05T21:01:20.249Z,21.00
2018-12-05T21:06:05.192Z,20.53
2018-12-05T21:10:50.556Z,19.40
2018-12-05T21:15:35.670Z,28.37
2018-12-05T21:20:20.619Z,30.33
2018-12-05T21:25:05.716Z,15.00
2018-12-05T21:29:50.686Z,16.23
2018-12-05T21:34:35.622Z,14.23
2018-12-05T21:39:20.593Z,15.47
2018-12-05T21:44:05.688Z,17.73
2018-12-05T21:48:50.646Z,20.60
2018-12-05T21:53:35.516Z,20.77
2018-12-05T21:58:20.426Z,19.13
2018-12-05T22:03:05.454Z,18.83
2018-12-05T22:07:50.497Z,18.83
2018-12-05T22:12:35.480Z,19.13
2018-12-05T22:17:20.394Z,18.77
2018-12-05T22:22:05.362Z,19.27
2018-12-05T22:26:50.301Z,22.20
2018-12-05T22:31:35.170Z,21.17
2018-12-05T22:36:20.023Z,22.23
2018-12-05T22:41:04.804Z,23.60
2018-12-05T22:45:49.635Z,22.27
2018-12-05T22:50:34.433Z,22.57
2018-12-05T22:55:19.300Z,21.00
2018-12-05T23:00:05.652Z,21.87
2018-12-05T23:04:50.512Z,21.27
2018-12-05T23:09:35.395Z,20.60
2018-12-05T23:14:20.317Z,20.63
2018-12-05T23:19:05.506Z,18.83
2018-12-05T23:23:50.212Z,19.90
2018-12-05T23:28:34.987Z,23.70
2018-12-05T23:33:19.869Z,23.13
2018-12-05T23:38:04.734Z,21.30
2018-12-05T23:42:49.559Z,21.80
2018-12-05T23:47:34.294Z,23.23
2018-12-05T23:52:19.110Z,22.13
2018-12-05T23:57:03.883Z,22.03
